Time;durP1;ratioP1;P1;durP2;ratioP2;P2;SDS_P1;SDS_P2;PMS_P1;PMS_P2;Temp;Humidity;BMP_temperature;BMP_pressure;BME280_temperature;BME280_humidity;BME280_pressure;Samples;Min_cycle;Max_cycle;Signal;HPM_P1;HPM_P2
2021/03/16 00:02:04;;;;;;;3.13;2.23;;;;;;;;;;4425150;32;20263;-65
2021/03/16 00:04:29;;;;;;;4.47;3.33;;;;;;;;;;4426141;32;20243;-64
2021/03/16 00:06:57;;;;;;;8.43;4.60;;;;;;;;;;4415754;32;20619;-63
2021/03/16 00:09:22;;;;;;;5.10;2.87;;;;;;;;;;4424386;32;20374;-66
2021/03/16 00:11:48;;;;;;;7.63;3.70;;;;;;;;;;4426724;32;20674;-65
2021/03/16 00:14:13;;;;;;;5.77;3.33;;;;;;;;;;4427475;32;20775;-64
2021/03/16 00:16:38;;;;;;;5.53;3.10;;;;;;;;;;4425286;32;20330;-61
2021/03/16 00:19:04;;;;;;;5.80;2.40;;;;;;;;;;4419558;32;20299;-61
2021/03/16 00:21:29;;;;;;;2.87;2.20;;;;;;;;;;4432360;32;20311;-60
2021/03/16 00:23:55;;;;;;;6.40;3.30;;;;;;;;;;4414173;32;20334;-60
2021/03/16 00:26:20;;;;;;;3.10;2.43;;;;;;;;;;4431797;32;20296;-60
2021/03/16 00:28:46;;;;;;;3.07;2.50;;;;;;;;;;4427554;32;20258;-62
2021/03/16 00:31:11;;;;;;;4.07;2.60;;;;;;;;;;4412454;32;20376;-65
2021/03/16 00:33:37;;;;;;;4.23;2.90;;;;;;;;;;4426758;32;20612;-62
2021/03/16 00:36:03;;;;;;;3.93;3.17;;;;;;;;;;4428013;32;20276;-63
2021/03/16 00:38:28;;;;;;;4.13;2.40;;;;;;;;;;4419946;32;20367;-76
2021/03/16 00:40:54;;;;;;;4.23;2.70;;;;;;;;;;4415814;32;20311;-71
2021/03/16 00:43:19;;;;;;;2.57;2.37;;;;;;;;;;4426394;32;20306;-73
2021/03/16 00:45:45;;;;;;;4.47;3.00;;;;;;;;;;4429067;32;20292;-73
2021/03/16 00:48:14;;;;;;;4.60;2.83;;;;;;;;;;4403292;32;20327;-72
2021/03/16 00:50:40;;;;;;;2.43;1.97;;;;;;;;;;4431021;32;20303;-72
2021/03/16 00:53:05;;;;;;;2.60;2.40;;;;;;;;;;4427339;32;20323;-72
2021/03/16 00:55:31;;;;;;;3.60;2.63;;;;;;;;;;4430523;32;20205;-70
2021/03/16 00:57:56;;;;;;;3.43;2.97;;;;;;;;;;4425471;32;20716;-68
2021/03/16 01:00:22;;;;;;;4.47;3.07;;;;;;;;;;4427115;32;20251;-68
2021/03/16 01:02:48;;;;;;;3.60;3.10;;;;;;;;;;4419257;32;20283;-60
2021/03/16 01:05:13;;;;;;;2.93;2.50;;;;;;;;;;4430904;32;20281;-59
2021/03/16 01:07:39;;;;;;;2.87;2.07;;;;;;;;;;4431891;32;20303;-59
2021/03/16 01:10:14;;;;;;;2.60;2.07;;;;;;;;;;4412823;32;20332;-59
2021/03/16 01:12:40;;;;;;;4.57;2.70;;;;;;;;;;4423953;32;20306;-58
2021/03/16 01:15:07;;;;;;;2.73;1.93;;;;;;;;;;4434171;32;20621;-58
2021/03/16 01:17:32;;;;;;;3.27;1.93;;;;;;;;;;4434900;32;20688;-60
2021/03/16 01:19:58;;;;;;;3.33;1.93;;;;;;;;;;4416570;32;20334;-59
2021/03/16 01:22:23;;;;;;;2.00;1.80;;;;;;;;;;4420548;32;20378;-59
2021/03/16 01:24:49;;;;;;;2.17;1.70;;;;;;;;;;4427915;32;20254;-57
2021/03/16 01:27:14;;;;;;;2.83;2.10;;;;;;;;;;4431501;32;20407;-59
2021/03/16 01:29:40;;;;;;;2.70;2.10;;;;;;;;;;4429391;32;20363;-57
2021/03/16 01:32:06;;;;;;;3.40;1.90;;;;;;;;;;4434439;32;20322;-56
2021/03/16 01:34:31;;;;;;;2.63;1.80;;;;;;;;;;4428458;32;20294;-58
2021/03/16 01:36:57;;;;;;;3.20;2.37;;;;;;;;;;4430836;32;20315;-57
2021/03/16 01:39:22;;;;;;;3.30;2.40;;;;;;;;;;4431824;32;20271;-57
2021/03/16 01:41:47;;;;;;;3.93;2.47;;;;;;;;;;4434436;32;20327;-63
2021/03/16 01:44:13;;;;;;;3.07;2.23;;;;;;;;;;4428480;32;20224;-64
2021/03/16 01:46:40;;;;;;;2.70;2.20;;;;;;;;;;4420108;32;20371;-64
2021/03/16 01:49:06;;;;;;;2.97;2.30;;;;;;;;;;4431792;32;20296;-67
2021/03/16 01:51:31;;;;;;;2.43;2.23;;;;;;;;;;4434140;32;20316;-69
2021/03/16 01:53:57;;;;;;;1.50;1.40;;;;;;;;;;4428646;32;20224;-70
2021/03/16 01:56:22;;;;;;;1.70;1.60;;;;;;;;;;4433967;32;20280;-75
2021/03/16 01:58:48;;;;;;;2.97;2.20;;;;;;;;;;4428515;32;20220;-72
2021/03/16 02:01:13;;;;;;;3.57;1.70;;;;;;;;;;4433674;32;20596;-72
2021/03/16 02:03:39;;;;;;;1.80;1.70;;;;;;;;;;4428542;32;20217;-71
2021/03/16 02:06:09;;;;;;;2.23;1.83;;;;;;;;;;4433905;32;20355;-70
2021/03/16 02:08:53;;;;;;;2.20;2.00;;;;;;;;;;4433094;32;20342;-71
2021/03/16 02:11:47;;;;;;;3.87;2.43;;;;;;;;;;4419449;32;20209;-73
2021/03/16 02:14:24;;;;;;;5.13;2.30;;;;;;;;;;4412268;32;20308;-68
2021/03/16 02:16:59;;;;;;;2.33;1.90;;;;;;;;;;4428496;32;20246;-70
2021/03/16 02:19:33;;;;;;;2.43;1.87;;;;;;;;;;4431567;32;20258;-79
2021/03/16 02:22:00;;;;;;;2.57;1.50;;;;;;;;;;4419565;32;20347;-72
2021/03/16 02:24:49;;;;;;;2.00;1.77;;;;;;;;;;4414844;32;20746;-72
2021/03/16 02:27:22;;;;;;;1.80;1.50;;;;;;;;;;4430704;32;20223;-72
2021/03/16 02:29:52;;;;;;;2.00;1.60;;;;;;;;;;4415396;32;20266;-73
2021/03/16 02:32:23;;;;;;;2.53;1.70;;;;;;;;;;4433766;32;20266;-71
2021/03/16 02:34:54;;;;;;;1.47;1.37;;;;;;;;;;4431910;32;20593;-64
2021/03/16 02:37:22;;;;;;;1.93;1.70;;;;;;;;;;4431225;32;20564;-69
2021/03/16 02:39:49;;;;;;;10.77;4.73;;;;;;;;;;4419416;32;20248;-71
2021/03/16 02:42:16;;;;;;;9.10;4.50;;;;;;;;;;4433938;32;20308;-67
2021/03/16 02:44:42;;;;;;;6.27;3.70;;;;;;;;;;4427057;32;20209;-71
2021/03/16 02:47:09;;;;;;;2.47;2.27;;;;;;;;;;4419833;32;20251;-66
2021/03/16 02:49:46;;;;;;;2.53;2.33;;;;;;;;;;4415402;32;20264;-67
2021/03/16 02:52:13;;;;;;;1.43;1.30;;;;;;;;;;4433895;32;20217;-64
2021/03/16 02:54:39;;;;;;;2.33;1.83;;;;;;;;;;4427040;32;20217;-64
2021/03/16 02:57:07;;;;;;;3.10;2.10;;;;;;;;;;4430287;32;20711;-66
2021/03/16 02:59:33;;;;;;;8.87;2.67;;;;;;;;;;4430745;32;20252;-67
2021/03/16 03:02:01;;;;;;;4.30;2.53;;;;;;;;;;4432962;32;20273;-66
2021/03/16 03:04:28;;;;;;;1.87;1.70;;;;;;;;;;4425046;32;20329;-65
2021/03/16 03:06:56;;;;;;;2.60;2.27;;;;;;;;;;4433603;32;20236;-61
2021/03/16 03:09:21;;;;;;;2.37;1.70;;;;;;;;;;4430443;32;20213;-62
2021/03/16 03:11:47;;;;;;;2.43;2.10;;;;;;;;;;4419795;32;20412;-64
2021/03/16 03:14:14;;;;;;;1.70;1.50;;;;;;;;;;4426845;32;20295;-64
2021/03/16 03:16:40;;;;;;;2.03;1.83;;;;;;;;;;4419068;32;20247;-64
2021/03/16 03:19:05;;;;;;;3.03;2.07;;;;;;;;;;4430945;32;20224;-64
2021/03/16 03:21:42;;;;;;;2.13;1.80;;;;;;;;;;4433138;32;20295;-62
2021/03/16 03:24:15;;;;;;;2.50;1.60;;;;;;;;;;4429038;32;20247;-65
2021/03/16 03:27:10;;;;;;;3.73;1.47;;;;;;;;;;4427628;32;20244;-65
2021/03/16 03:29:36;;;;;;;1.77;1.67;;;;;;;;;;4430542;32;20327;-65
2021/03/16 03:32:05;;;;;;;2.43;1.73;;;;;;;;;;4419235;32;20620;-67
2021/03/16 03:34:34;;;;;;;4.20;1.90;;;;;;;;;;4426112;32;20279;-66
2021/03/16 03:37:02;;;;;;;2.53;1.77;;;;;;;;;;4414918;32;20228;-67
2021/03/16 03:39:32;;;;;;;1.43;1.30;;;;;;;;;;4430277;32;20280;-69
2021/03/16 03:41:58;;;;;;;4.20;1.90;;;;;;;;;;4432845;32;20673;-70
2021/03/16 03:44:25;;;;;;;3.93;2.23;;;;;;;;;;4412355;32;20241;-67
2021/03/16 03:46:51;;;;;;;4.03;2.03;;;;;;;;;;4431899;32;20626;-66
2021/03/16 03:49:19;;;;;;;6.80;4.13;;;;;;;;;;4430295;32;20255;-57
2021/03/16 03:51:46;;;;;;;3.33;2.80;;;;;;;;;;4432801;32;20297;-58
2021/03/16 03:54:12;;;;;;;5.30;3.80;;;;;;;;;;4426435;32;20260;-58
2021/03/16 03:56:38;;;;;;;4.80;3.43;;;;;;;;;;4432128;32;20313;-59
2021/03/16 03:59:05;;;;;;;10.47;4.27;;;;;;;;;;4421647;32;20642;-57
2021/03/16 04:01:32;;;;;;;3.97;2.80;;;;;;;;;;3988996;32;20292;-62
2021/03/16 04:04:01;;;;;;;2.53;2.00;;;;;;;;;;3786806;34;20286;-62
2021/03/16 04:06:26;;;;;;;4.93;2.90;;;;;;;;;;4142996;33;20231;-65
2021/03/16 04:08:53;;;;;;;4.33;3.07;;;;;;;;;;4146496;34;20282;-63
2021/03/16 04:11:23;;;;;;;2.13;1.90;;;;;;;;;;4150632;34;20204;-64
2021/03/16 04:13:50;;;;;;;2.37;1.67;;;;;;;;;;4146543;34;20219;-63
2021/03/16 04:16:17;;;;;;;2.87;2.30;;;;;;;;;;4150038;34;20700;-62
2021/03/16 04:18:43;;;;;;;18.27;10.37;;;;;;;;;;4156365;34;20294;-62
2021/03/16 04:21:10;;;;;;;15.10;7.93;;;;;;;;;;4160266;34;20265;-61
2021/03/16 04:23:37;;;;;;;2.77;2.20;;;;;;;;;;4145480;34;20272;-60
2021/03/16 04:26:03;;;;;;;9.67;5.83;;;;;;;;;;4149618;34;20222;-70
2021/03/16 04:28:28;;;;;;;4.23;3.17;;;;;;;;;;4146273;34;20524;-71
2021/03/16 04:30:54;;;;;;;4.93;3.80;;;;;;;;;;4151950;34;20306;-68
2021/03/16 04:33:20;;;;;;;3.57;2.87;;;;;;;;;;4144811;34;20249;-74
2021/03/16 04:35:46;;;;;;;3.87;2.30;;;;;;;;;;4152184;34;20366;-74
2021/03/16 04:38:12;;;;;;;3.43;2.67;;;;;;;;;;4147255;34;20255;-79
2021/03/16 04:40:39;;;;;;;3.40;2.30;;;;;;;;;;4153837;34;20732;-73
2021/03/16 04:43:05;;;;;;;3.30;2.30;;;;;;;;;;4144789;34;20235;-72
2021/03/16 04:45:31;;;;;;;4.13;3.00;;;;;;;;;;4148738;34;20602;-72
2021/03/16 04:47:56;;;;;;;3.40;2.47;;;;;;;;;;4149238;34;20316;-70
2021/03/16 04:50:22;;;;;;;2.90;2.13;;;;;;;;;;4162032;34;20243;-69
2021/03/16 04:52:49;;;;;;;2.13;1.93;;;;;;;;;;4144613;34;20708;-72
2021/03/16 04:55:14;;;;;;;5.13;3.00;;;;;;;;;;4156370;34;20782;-73
2021/03/16 04:57:40;;;;;;;2.87;2.27;;;;;;;;;;4150140;34;20603;-73
2021/03/16 05:00:06;;;;;;;6.03;3.40;;;;;;;;;;4160304;34;20259;-74
2021/03/16 05:02:32;;;;;;;3.53;2.80;;;;;;;;;;4155945;34;20753;-73
2021/03/16 05:04:57;;;;;;;4.20;2.73;;;;;;;;;;4156400;34;20290;-72
2021/03/16 05:07:23;;;;;;;2.93;2.43;;;;;;;;;;4149968;34;20741;-72
2021/03/16 05:09:48;;;;;;;2.13;1.83;;;;;;;;;;4148210;34;20314;-72
2021/03/16 05:12:13;;;;;;;3.60;2.20;;;;;;;;;;4147907;34;20668;-72
2021/03/16 05:14:39;;;;;;;3.87;2.50;;;;;;;;;;4157695;34;20307;-73
2021/03/16 05:17:04;;;;;;;3.27;2.50;;;;;;;;;;4148516;34;20302;-73
2021/03/16 05:19:30;;;;;;;8.83;5.30;;;;;;;;;;4155561;34;20302;-72
2021/03/16 05:21:55;;;;;;;6.00;2.60;;;;;;;;;;4159181;34;20326;-69
2021/03/16 05:24:21;;;;;;;6.07;4.43;;;;;;;;;;4145852;34;20315;-70
2021/03/16 05:26:47;;;;;;;5.67;4.47;;;;;;;;;;4150239;34;20370;-68
2021/03/16 05:29:12;;;;;;;6.87;3.83;;;;;;;;;;4144934;34;20307;-68
2021/03/16 05:31:41;;;;;;;5.43;3.70;;;;;;;;;;4150618;34;20283;-69
2021/03/16 05:34:07;;;;;;;4.97;3.30;;;;;;;;;;4145710;34;20226;-57
2021/03/16 05:36:32;;;;;;;5.47;3.50;;;;;;;;;;4153730;34;20314;-60
2021/03/16 05:38:58;;;;;;;4.23;3.50;;;;;;;;;;4155782;34;20606;-63
2021/03/16 05:41:24;;;;;;;7.03;3.10;;;;;;;;;;4149950;34;20271;-63
2021/03/16 05:43:50;;;;;;;5.73;4.43;;;;;;;;;;4145975;34;20445;-63
2021/03/16 05:46:16;;;;;;;7.30;4.90;;;;;;;;;;4159896;34;20784;-60
2021/03/16 05:48:48;;;;;;;8.93;5.03;;;;;;;;;;4146030;34;20268;-65
2021/03/16 05:51:13;;;;;;;15.43;7.43;;;;;;;;;;4143597;34;20223;-63
2021/03/16 05:53:39;;;;;;;8.00;4.90;;;;;;;;;;4150306;34;20600;-61
2021/03/16 05:56:05;;;;;;;6.33;4.10;;;;;;;;;;4148705;34;20727;-63
2021/03/16 05:58:31;;;;;;;6.20;4.70;;;;;;;;;;4152420;34;20228;-65
2021/03/16 06:00:57;;;;;;;6.37;3.30;;;;;;;;;;4151053;34;20421;-63
2021/03/16 06:03:22;;;;;;;3.13;2.83;;;;;;;;;;4151594;34;20228;-64
2021/03/16 06:05:51;;;;;;;4.20;3.50;;;;;;;;;;4158304;34;20576;-64
2021/03/16 06:08:17;;;;;;;7.63;4.67;;;;;;;;;;4147021;34;20216;-66
2021/03/16 06:10:43;;;;;;;4.87;4.07;;;;;;;;;;4163306;34;20332;-66
2021/03/16 06:13:11;;;;;;;7.73;4.23;;;;;;;;;;4154249;34;20280;-69
2021/03/16 06:15:37;;;;;;;7.10;4.60;;;;;;;;;;4150779;34;20442;-69
2021/03/16 06:18:04;;;;;;;4.37;3.97;;;;;;;;;;4148614;34;20345;-73
2021/03/16 06:20:32;;;;;;;3.97;2.93;;;;;;;;;;4145850;34;20308;-73
2021/03/16 06:23:12;;;;;;;6.37;3.67;;;;;;;;;;4145844;34;20391;-66
2021/03/16 06:25:42;;;;;;;6.33;4.03;;;;;;;;;;4148641;34;20272;-60
2021/03/16 06:28:11;;;;;;;7.37;4.93;;;;;;;;;;4155778;34;20368;-62
2021/03/16 06:30:38;;;;;;;6.73;4.30;;;;;;;;;;4146350;34;20264;-63
2021/03/16 06:33:04;;;;;;;9.47;5.77;;;;;;;;;;4146841;34;20382;-64
2021/03/16 06:35:30;;;;;;;12.93;4.10;;;;;;;;;;4153816;34;20612;-70
2021/03/16 06:38:04;;;;;;;6.03;2.37;;;;;;;;;;4147762;34;20318;-70
2021/03/16 06:40:34;;;;;;;4.20;2.80;;;;;;;;;;4146327;34;20228;-65
2021/03/16 06:43:08;;;;;;;11.10;5.77;;;;;;;;;;4145822;34;20192;-64
2021/03/16 06:45:36;;;;;;;9.20;3.47;;;;;;;;;;4152644;34;20721;-64
2021/03/16 06:48:20;;;;;;;10.97;5.97;;;;;;;;;;4152157;34;20235;-61
2021/03/16 06:50:47;;;;;;;8.53;4.13;;;;;;;;;;4156209;34;20348;-62
2021/03/16 06:53:29;;;;;;;12.23;6.80;;;;;;;;;;4153514;34;20322;-61
2021/03/16 06:55:56;;;;;;;15.43;6.73;;;;;;;;;;4150806;34;20223;-60
2021/03/16 06:58:27;;;;;;;14.67;5.97;;;;;;;;;;4146195;34;20293;-62
2021/03/16 07:01:18;;;;;;;6.03;4.63;;;;;;;;;;4149861;34;20277;-62
2021/03/16 07:03:45;;;;;;;14.47;9.43;;;;;;;;;;4156205;34;20246;-60
2021/03/16 07:06:16;;;;;;;9.97;6.67;;;;;;;;;;4145417;34;20352;-61
2021/03/16 07:08:44;;;;;;;7.43;5.13;;;;;;;;;;4144638;34;20264;-64
2021/03/16 07:11:12;;;;;;;5.93;4.60;;;;;;;;;;4146596;34;20212;-66
2021/03/16 07:13:39;;;;;;;8.37;5.30;;;;;;;;;;4148113;34;20239;-65
2021/03/16 07:16:06;;;;;;;13.73;5.33;;;;;;;;;;4155253;34;20263;-65
2021/03/16 07:18:40;;;;;;;15.00;9.60;;;;;;;;;;4149020;34;20250;-66
2021/03/16 07:21:27;;;;;;;19.97;11.33;;;;;;;;;;4153219;34;20418;-62
2021/03/16 07:24:06;;;;;;;8.53;5.43;;;;;;;;;;4150284;34;20336;-62
2021/03/16 07:26:32;;;;;;;7.53;5.40;;;;;;;;;;4161667;34;20732;-62
2021/03/16 07:28:58;;;;;;;6.10;4.87;;;;;;;;;;4155549;34;20482;-63
2021/03/16 07:31:25;;;;;;;7.63;6.17;;;;;;;;;;4150880;34;20334;-63
2021/03/16 07:33:52;;;;;;;20.77;11.87;;;;;;;;;;4148229;34;20241;-65
2021/03/16 07:36:18;;;;;;;5.27;3.77;;;;;;;;;;4153655;34;20291;-62
2021/03/16 07:38:45;;;;;;;11.57;5.47;;;;;;;;;;4160405;34;20266;-61
2021/03/16 07:41:11;;;;;;;8.03;5.53;;;;;;;;;;4152186;34;20219;-61
2021/03/16 07:43:39;;;;;;;9.40;6.50;;;;;;;;;;4162470;34;20254;-62
2021/03/16 07:46:08;;;;;;;7.17;4.50;;;;;;;;;;4153546;34;20243;-62
2021/03/16 07:48:33;;;;;;;15.80;7.37;;;;;;;;;;4151340;34;20338;-63
2021/03/16 07:51:08;;;;;;;13.13;7.93;;;;;;;;;;4153645;34;20354;-66
2021/03/16 07:53:34;;;;;;;9.67;5.60;;;;;;;;;;4143371;34;20375;-59
2021/03/16 07:56:08;;;;;;;9.00;6.20;;;;;;;;;;4145752;34;20583;-59
2021/03/16 07:58:43;;;;;;;9.90;6.27;;;;;;;;;;4152912;34;20266;-60
2021/03/16 08:01:09;;;;;;;8.80;5.33;;;;;;;;;;4159892;34;20250;-59
2021/03/16 08:03:35;;;;;;;4.50;3.57;;;;;;;;;;4148107;34;20218;-59
2021/03/16 08:06:00;;;;;;;6.47;4.03;;;;;;;;;;4148686;34;20668;-60
2021/03/16 08:08:26;;;;;;;19.60;9.27;;;;;;;;;;4162578;34;20673;-59
2021/03/16 08:10:51;;;;;;;6.50;5.23;;;;;;;;;;4151778;34;20374;-59
2021/03/16 08:13:18;;;;;;;7.03;5.43;;;;;;;;;;4154766;34;20363;-59
2021/03/16 08:15:48;;;;;;;5.23;4.33;;;;;;;;;;4157482;34;20246;-60
2021/03/16 08:18:27;;;;;;;15.53;8.73;;;;;;;;;;4159840;34;20307;-60
2021/03/16 08:21:05;;;;;;;8.53;5.60;;;;;;;;;;4145242;34;20589;-59
2021/03/16 08:23:31;;;;;;;4.60;3.33;;;;;;;;;;4155502;34;20547;-59
2021/03/16 08:25:57;;;;;;;7.07;5.37;;;;;;;;;;4151784;34;20738;-60
2021/03/16 08:28:23;;;;;;;6.87;4.07;;;;;;;;;;4158045;34;20228;-59
2021/03/16 08:30:49;;;;;;;8.50;5.77;;;;;;;;;;4153077;34;20386;-61
2021/03/16 08:33:15;;;;;;;8.00;5.43;;;;;;;;;;4148982;34;20253;-61
2021/03/16 08:35:54;;;;;;;7.03;4.70;;;;;;;;;;4150743;34;20294;-61
2021/03/16 08:38:28;;;;;;;20.30;9.07;;;;;;;;;;4145683;34;20582;-60
2021/03/16 08:41:07;;;;;;;17.47;7.90;;;;;;;;;;4138549;34;20298;-61
2021/03/16 08:43:34;;;;;;;21.53;11.53;;;;;;;;;;4143827;34;20342;-62
2021/03/16 08:45:59;;;;;;;13.97;8.80;;;;;;;;;;4141866;34;20215;-59
2021/03/16 08:48:26;;;;;;;14.73;9.47;;;;;;;;;;4151272;34;20407;-60
2021/03/16 08:50:52;;;;;;;21.87;11.97;;;;;;;;;;4146857;34;20208;-60
2021/03/16 08:53:17;;;;;;;8.57;6.07;;;;;;;;;;4147638;34;20589;-60
2021/03/16 08:55:51;;;;;;;8.00;5.37;;;;;;;;;;4148406;34;20867;-61
2021/03/16 08:58:17;;;;;;;10.87;8.67;;;;;;;;;;4148758;34;20284;-60
2021/03/16 09:00:44;;;;;;;19.17;9.27;;;;;;;;;;4155492;34;20266;-61
2021/03/16 09:03:10;;;;;;;34.17;19.70;;;;;;;;;;4162726;34;20319;-59
2021/03/16 09:05:36;;;;;;;17.57;10.30;;;;;;;;;;4159750;34;20757;-62
2021/03/16 09:08:02;;;;;;;8.43;6.43;;;;;;;;;;4146215;34;20323;-62
2021/03/16 09:10:28;;;;;;;11.50;7.90;;;;;;;;;;4148016;34;20211;-59
2021/03/16 09:12:54;;;;;;;8.67;6.13;;;;;;;;;;4145907;34;20318;-61
2021/03/16 09:15:22;;;;;;;10.90;7.63;;;;;;;;;;4146916;34;20584;-61
2021/03/16 09:17:53;;;;;;;9.13;6.27;;;;;;;;;;4152864;34;20258;-62
2021/03/16 09:20:18;;;;;;;9.23;5.83;;;;;;;;;;4151073;34;20207;-61
2021/03/16 09:22:45;;;;;;;8.60;6.60;;;;;;;;;;4152437;34;20340;-60
2021/03/16 09:25:12;;;;;;;24.23;13.57;;;;;;;;;;4158060;34;20236;-60
2021/03/16 09:27:39;;;;;;;15.97;11.23;;;;;;;;;;4152162;34;20725;-60
2021/03/16 09:30:08;;;;;;;14.03;8.30;;;;;;;;;;4146602;34;20311;-60
2021/03/16 09:32:35;;;;;;;16.70;9.47;;;;;;;;;;4160442;34;20219;-61
2021/03/16 09:35:01;;;;;;;14.37;9.03;;;;;;;;;;4167308;34;20259;-60
2021/03/16 09:37:26;;;;;;;7.43;6.17;;;;;;;;;;4149723;34;20348;-60
2021/03/16 09:39:53;;;;;;;10.70;6.17;;;;;;;;;;4151371;34;20611;-59
2021/03/16 09:42:31;;;;;;;8.40;6.37;;;;;;;;;;4152710;34;20234;-60
2021/03/16 09:44:58;;;;;;;8.90;6.00;;;;;;;;;;4147494;34;20615;-60
2021/03/16 09:47:25;;;;;;;14.60;9.00;;;;;;;;;;4151021;34;20555;-59
2021/03/16 09:50:05;;;;;;;9.93;7.00;;;;;;;;;;4147264;34;20216;-59
2021/03/16 09:52:30;;;;;;;8.37;6.97;;;;;;;;;;4157578;34;20235;-60
2021/03/16 09:54:56;;;;;;;11.27;8.33;;;;;;;;;;4165640;34;20254;-60
2021/03/16 09:57:33;;;;;;;14.77;8.10;;;;;;;;;;4155177;34;20646;-60
2021/03/16 09:59:59;;;;;;;13.43;8.27;;;;;;;;;;4168320;34;20626;-60
2021/03/16 10:02:36;;;;;;;14.80;8.17;;;;;;;;;;4163191;34;20366;-60
2021/03/16 10:05:05;;;;;;;9.57;7.50;;;;;;;;;;4159799;34;20220;-60
2021/03/16 10:07:32;;;;;;;11.23;8.17;;;;;;;;;;4152575;34;20252;-59
2021/03/16 10:10:16;;;;;;;6.73;5.23;;;;;;;;;;4152264;34;20586;-59
2021/03/16 10:13:02;;;;;;;9.63;7.00;;;;;;;;;;4150992;34;20604;-60
2021/03/16 10:15:42;;;;;;;19.63;7.57;;;;;;;;;;4157085;34;20276;-60
2021/03/16 10:18:17;;;;;;;11.57;5.03;;;;;;;;;;4154566;34;20353;-61
2021/03/16 10:20:45;;;;;;;7.10;5.40;;;;;;;;;;4163138;34;20666;-63
2021/03/16 10:23:17;;;;;;;7.43;5.33;;;;;;;;;;4153610;34;20523;-61
2021/03/16 10:25:43;;;;;;;9.17;5.37;;;;;;;;;;4147392;34;20378;-62
2021/03/16 10:28:10;;;;;;;12.00;7.97;;;;;;;;;;4151740;34;20586;-63
2021/03/16 10:30:40;;;;;;;15.00;8.23;;;;;;;;;;4149129;34;20314;-62
2021/03/16 10:33:07;;;;;;;14.60;5.73;;;;;;;;;;4157681;34;20385;-62
2021/03/16 10:35:33;;;;;;;10.90;5.67;;;;;;;;;;4153868;34;20215;-62
2021/03/16 10:37:59;;;;;;;6.30;4.97;;;;;;;;;;4155080;34;20219;-62
2021/03/16 10:40:24;;;;;;;13.97;6.40;;;;;;;;;;4155591;34;20599;-61
2021/03/16 10:42:51;;;;;;;7.40;5.73;;;;;;;;;;4162884;34;20404;-62
2021/03/16 10:45:17;;;;;;;14.37;6.10;;;;;;;;;;4156286;34;20318;-62
2021/03/16 10:47:42;;;;;;;6.70;4.83;;;;;;;;;;4152206;34;20683;-64
2021/03/16 10:50:08;;;;;;;9.47;6.40;;;;;;;;;;4164332;34;20223;-62
2021/03/16 10:52:34;;;;;;;8.90;6.30;;;;;;;;;;4150098;34;20365;-62
2021/03/16 10:55:00;;;;;;;11.50;7.93;;;;;;;;;;4152101;34;20677;-63
2021/03/16 10:57:25;;;;;;;14.93;6.90;;;;;;;;;;4161495;34;20446;-62
2021/03/16 10:59:51;;;;;;;11.83;7.50;;;;;;;;;;4152548;34;20733;-61
2021/03/16 11:02:16;;;;;;;14.10;6.57;;;;;;;;;;4146567;34;20219;-61
2021/03/16 11:04:42;;;;;;;6.30;4.60;;;;;;;;;;4150131;34;20356;-60
2021/03/16 11:07:08;;;;;;;6.37;4.20;;;;;;;;;;4158368;34;20354;-60
2021/03/16 11:09:33;;;;;;;5.13;4.40;;;;;;;;;;4153264;34;20243;-60
2021/03/16 11:11:59;;;;;;;6.47;3.27;;;;;;;;;;4154796;34;20286;-61
2021/03/16 11:14:24;;;;;;;11.00;5.63;;;;;;;;;;4147080;34;20306;-59
2021/03/16 11:16:50;;;;;;;5.73;4.80;;;;;;;;;;4149938;34;20759;-60
2021/03/16 11:19:15;;;;;;;7.90;6.40;;;;;;;;;;4147222;34;20314;-61
2021/03/16 11:21:42;;;;;;;10.33;6.40;;;;;;;;;;4153860;34;20716;-60
2021/03/16 11:24:09;;;;;;;13.37;7.70;;;;;;;;;;4152077;34;20376;-60
2021/03/16 11:26:34;;;;;;;10.03;7.00;;;;;;;;;;4157203;34;20309;-61
2021/03/16 11:29:01;;;;;;;9.27;6.53;;;;;;;;;;4156417;34;20261;-60
2021/03/16 11:31:27;;;;;;;12.60;8.33;;;;;;;;;;4159902;34;20362;-62
2021/03/16 11:33:52;;;;;;;13.57;8.50;;;;;;;;;;4153902;34;20322;-60
2021/03/16 11:36:17;;;;;;;12.70;6.13;;;;;;;;;;4147147;34;20435;-60
2021/03/16 11:38:43;;;;;;;10.47;6.40;;;;;;;;;;4147772;34;20625;-59
2021/03/16 11:41:09;;;;;;;7.33;4.70;;;;;;;;;;4147062;34;20713;-62
2021/03/16 11:43:34;;;;;;;19.57;7.50;;;;;;;;;;4151072;34;20239;-60
2021/03/16 11:46:00;;;;;;;9.13;5.33;;;;;;;;;;4151630;34;20317;-60
2021/03/16 11:48:25;;;;;;;8.07;5.00;;;;;;;;;;4151467;34;20305;-60
2021/03/16 11:50:51;;;;;;;11.17;6.30;;;;;;;;;;4152513;34;20361;-60
2021/03/16 11:53:16;;;;;;;11.77;6.50;;;;;;;;;;4160793;34;20330;-59
2021/03/16 11:55:42;;;;;;;10.93;6.90;;;;;;;;;;4154606;34;20496;-58
2021/03/16 11:58:07;;;;;;;12.47;7.10;;;;;;;;;;4158101;34;20644;-59
2021/03/16 12:00:33;;;;;;;6.77;5.20;;;;;;;;;;4151336;34;20293;-59
2021/03/16 12:02:59;;;;;;;19.93;11.07;;;;;;;;;;4147637;34;20781;-59
2021/03/16 12:05:25;;;;;;;12.67;7.93;;;;;;;;;;4147758;34;20224;-58
2021/03/16 12:07:50;;;;;;;9.23;5.53;;;;;;;;;;4148372;34;20335;-59
2021/03/16 12:10:16;;;;;;;11.20;7.17;;;;;;;;;;4146875;34;20693;-59
2021/03/16 12:12:42;;;;;;;12.23;7.87;;;;;;;;;;4147929;34;20409;-58
2021/03/16 12:15:11;;;;;;;11.47;6.37;;;;;;;;;;4148280;34;20256;-59
2021/03/16 12:17:36;;;;;;;6.63;5.33;;;;;;;;;;4147423;34;20367;-58
2021/03/16 12:20:04;;;;;;;19.00;11.23;;;;;;;;;;4148239;34;20239;-58
2021/03/16 12:22:29;;;;;;;15.10;8.73;;;;;;;;;;4149816;34;20480;-60
2021/03/16 12:24:54;;;;;;;14.67;8.87;;;;;;;;;;4164704;34;20328;-59
2021/03/16 12:27:20;;;;;;;17.17;8.47;;;;;;;;;;4153092;34;20655;-57
2021/03/16 12:29:46;;;;;;;12.43;9.10;;;;;;;;;;4159588;34;20370;-58
2021/03/16 12:32:11;;;;;;;15.93;8.10;;;;;;;;;;4146930;34;20646;-60
2021/03/16 12:34:37;;;;;;;9.93;6.90;;;;;;;;;;4159090;34;20242;-58
2021/03/16 12:37:03;;;;;;;8.23;5.00;;;;;;;;;;4148419;34;20364;-59
2021/03/16 12:39:29;;;;;;;9.23;4.57;;;;;;;;;;4158468;34;20231;-58
2021/03/16 12:41:55;;;;;;;6.83;4.07;;;;;;;;;;4152718;34;20294;-59
2021/03/16 12:44:20;;;;;;;6.70;4.30;;;;;;;;;;4149081;34;20555;-60
2021/03/16 12:46:46;;;;;;;12.93;8.23;;;;;;;;;;4147539;34;20298;-60
2021/03/16 12:49:11;;;;;;;9.40;6.90;;;;;;;;;;4153755;34;20688;-60
2021/03/16 12:51:37;;;;;;;13.57;9.37;;;;;;;;;;4164911;34;20293;-61
2021/03/16 12:54:03;;;;;;;10.40;7.00;;;;;;;;;;4167390;34;20235;-59
2021/03/16 12:56:28;;;;;;;14.07;8.80;;;;;;;;;;4148345;34;20832;-64
2021/03/16 12:58:54;;;;;;;12.90;6.23;;;;;;;;;;4158039;34;20737;-60
2021/03/16 13:01:20;;;;;;;12.17;6.67;;;;;;;;;;4149472;34;20351;-59
2021/03/16 13:03:46;;;;;;;10.13;7.00;;;;;;;;;;4158604;34;20449;-60
2021/03/16 13:06:11;;;;;;;12.30;7.33;;;;;;;;;;4147052;34;20380;-59
2021/03/16 13:08:37;;;;;;;13.87;7.33;;;;;;;;;;4157811;34;20244;-60
2021/03/16 13:11:02;;;;;;;11.27;6.90;;;;;;;;;;4152936;34;20291;-60
2021/03/16 13:13:28;;;;;;;9.87;6.00;;;;;;;;;;4151089;34;20710;-62
2021/03/16 13:15:53;;;;;;;9.77;6.70;;;;;;;;;;4157132;34;20291;-61
2021/03/16 13:18:19;;;;;;;8.93;5.23;;;;;;;;;;4155449;34;20218;-62
2021/03/16 13:20:45;;;;;;;17.27;10.50;;;;;;;;;;4153858;34;20310;-61
2021/03/16 13:23:10;;;;;;;14.80;8.23;;;;;;;;;;4153529;34;20794;-61
2021/03/16 13:25:36;;;;;;;13.10;7.00;;;;;;;;;;4159918;34;20707;-62
2021/03/16 13:28:02;;;;;;;14.17;7.33;;;;;;;;;;4152693;34;20312;-61
2021/03/16 13:30:31;;;;;;;4.00;3.47;;;;;;;;;;4150586;34;20237;-62
2021/03/16 13:32:57;;;;;;;6.10;4.60;;;;;;;;;;4152172;34;20701;-63
2021/03/16 13:35:23;;;;;;;8.27;5.20;;;;;;;;;;4154728;34;20308;-63
2021/03/16 13:37:51;;;;;;;16.67;6.37;;;;;;;;;;4155161;34;20396;-63
2021/03/16 13:40:18;;;;;;;13.17;7.60;;;;;;;;;;4150087;34;20235;-61
2021/03/16 13:42:43;;;;;;;10.10;6.77;;;;;;;;;;4155550;34;20282;-62
2021/03/16 13:45:09;;;;;;;5.73;4.43;;;;;;;;;;4151700;34;20658;-60
2021/03/16 13:47:34;;;;;;;7.73;5.00;;;;;;;;;;4153831;34;20294;-61
2021/03/16 13:50:00;;;;;;;6.90;5.30;;;;;;;;;;4149892;34;20247;-63
2021/03/16 13:52:25;;;;;;;7.43;4.80;;;;;;;;;;4152181;34;20624;-62
2021/03/16 13:54:51;;;;;;;5.80;4.10;;;;;;;;;;4150503;34;20238;-59
2021/03/16 13:57:16;;;;;;;9.67;6.50;;;;;;;;;;4152394;34;20294;-59
2021/03/16 13:59:43;;;;;;;7.70;5.13;;;;;;;;;;4152473;34;20583;-59
2021/03/16 14:02:08;;;;;;;6.53;4.83;;;;;;;;;;4149810;34;20385;-60
2021/03/16 14:04:34;;;;;;;11.23;7.43;;;;;;;;;;4151651;34;20224;-60
2021/03/16 14:06:59;;;;;;;9.97;6.57;;;;;;;;;;4153097;34;20318;-59
2021/03/16 14:09:25;;;;;;;6.33;4.60;;;;;;;;;;4156548;34;20456;-59
2021/03/16 14:11:51;;;;;;;9.13;4.70;;;;;;;;;;4164952;34;20289;-60
2021/03/16 14:14:16;;;;;;;7.47;4.13;;;;;;;;;;4153919;34;20266;-59
2021/03/16 14:16:42;;;;;;;7.30;5.23;;;;;;;;;;4156155;34;20377;-60
2021/03/16 14:19:07;;;;;;;6.53;5.10;;;;;;;;;;4152408;34;20243;-59
2021/03/16 14:21:33;;;;;;;6.93;4.10;;;;;;;;;;4151626;34;20365;-59
2021/03/16 14:23:58;;;;;;;12.93;5.53;;;;;;;;;;4150750;34;20646;-62
2021/03/16 14:26:24;;;;;;;8.50;4.73;;;;;;;;;;4160888;34;20302;-61
2021/03/16 14:28:50;;;;;;;13.57;6.73;;;;;;;;;;4160974;34;20524;-62
2021/03/16 14:31:17;;;;;;;6.43;4.77;;;;;;;;;;4163741;34;20322;-62
2021/03/16 14:33:44;;;;;;;10.33;6.13;;;;;;;;;;4166050;34;20223;-63
2021/03/16 14:36:10;;;;;;;8.40;6.47;;;;;;;;;;4165297;34;20330;-63
2021/03/16 14:38:36;;;;;;;12.13;7.30;;;;;;;;;;4152278;34;20216;-62
2021/03/16 14:41:01;;;;;;;10.80;7.27;;;;;;;;;;4161625;34;20399;-64